createdAt,value
2019-02-18T00:01:30.572Z,44.38
2019-02-18T00:04:00.989Z,41.48
2019-02-18T00:06:31.343Z,38.55
2019-02-18T00:09:01.840Z,42.85
2019-02-18T00:11:33.591Z,43.73
2019-02-18T00:14:03.949Z,43.23
2019-02-18T00:16:34.350Z,42.65
2019-02-18T00:19:04.767Z,40.20
2019-02-18T00:21:35.201Z,46.85
2019-02-18T00:24:05.809Z,47.53
2019-02-18T00:26:36.287Z,42.60
2019-02-18T00:29:06.731Z,45.10
2019-02-18T00:31:37.297Z,44.35
2019-02-18T00:34:07.667Z,45.80
2019-02-18T00:36:38.149Z,40.15
2019-02-18T00:39:08.599Z,44.08
2019-02-18T00:41:39.081Z,43.13
2019-02-18T00:44:12.457Z,41.50
2019-02-18T00:46:43.000Z,44.42
2019-02-18T00:49:13.568Z,45.03
2019-02-18T00:51:43.961Z,43.50
2019-02-18T00:54:14.527Z,43.70
2019-02-18T00:56:45.283Z,45.17
2019-02-18T00:59:15.931Z,45.98
2019-02-18T01:01:46.513Z,47.93
2019-02-18T01:04:17.135Z,48.95
2019-02-18T01:06:47.886Z,49.30
2019-02-18T01:09:18.481Z,49.50
2019-02-18T01:11:48.893Z,41.98
2019-02-18T01:14:19.695Z,41.02
2019-02-18T01:16:53.695Z,45.52
2019-02-18T01:19:24.189Z,44.18
2019-02-18T01:21:55.645Z,50.43
2019-02-18T01:24:26.157Z,47.30
2019-02-18T01:26:56.660Z,50.63
2019-02-18T01:29:27.245Z,51.13
2019-02-18T01:32:00.529Z,49.93
2019-02-18T01:34:31.023Z,53.70
2019-02-18T01:37:01.516Z,45.30
2019-02-18T01:39:32.022Z,50.65
2019-02-18T01:42:02.469Z,48.17
2019-02-18T01:44:32.872Z,51.65
2019-02-18T01:47:03.265Z,47.30
2019-02-18T01:49:34.063Z,44.30
2019-02-18T01:52:04.527Z,39.25
2019-02-18T01:54:34.903Z,48.92
2019-02-18T01:57:05.287Z,47.05
2019-02-18T01:59:35.721Z,46.73
2019-02-18T02:02:06.226Z,44.83
2019-02-18T02:04:36.705Z,46.95
2019-02-18T02:07:07.208Z,45.83
2019-02-18T02:09:37.665Z,44.98
2019-02-18T02:12:08.071Z,44.98
2019-02-18T02:14:38.589Z,50.15
2019-02-18T02:17:09.061Z,44.60
2019-02-18T02:19:39.509Z,43.73
2019-02-18T02:22:11.051Z,44.00
2019-02-18T02:24:41.441Z,46.40
2019-02-18T02:27:11.868Z,44.85
2019-02-18T02:29:42.287Z,40.90
2019-02-18T02:32:12.780Z,43.55
2019-02-18T02:34:43.165Z,40.38
2019-02-18T02:37:13.612Z,44.10
2019-02-18T02:39:44.032Z,42.88
2019-02-18T02:42:14.393Z,43.65
2019-02-18T02:44:44.757Z,39.00
2019-02-18T02:47:15.194Z,37.90
2019-02-18T02:49:45.597Z,39.63
2019-02-18T02:52:16.090Z,42.50
2019-02-18T02:54:46.455Z,42.10
2019-02-18T02:57:17.159Z,43.90
2019-02-18T02:59:47.546Z,40.25
2019-02-18T03:02:18.071Z,38.40
2019-02-18T03:04:48.552Z,44.38
2019-02-18T03:07:18.993Z,41.25
2019-02-18T03:09:49.540Z,40.43
2019-02-18T03:12:20.065Z,41.35
2019-02-18T03:14:50.521Z,37.60
2019-02-18T03:17:20.919Z,40.90
2019-02-18T03:19:51.383Z,41.45
2019-02-18T03:22:21.900Z,40.43
2019-02-18T03:25:29.238Z,41.00
2019-02-18T03:28:23.515Z,36.42
2019-02-18T03:31:00.655Z,41.08
2019-02-18T03:33:35.570Z,41.30
2019-02-18T03:36:05.949Z,42.83
2019-02-18T03:38:36.341Z,41.05
2019-02-18T03:41:06.787Z,38.30
2019-02-18T03:43:37.260Z,38.55
2019-02-18T03:46:07.719Z,35.38
2019-02-18T03:48:38.081Z,41.98
2019-02-18T03:51:08.476Z,40.95
2019-02-18T03:53:38.879Z,45.60
2019-02-18T03:56:09.344Z,39.92
2019-02-18T03:58:39.724Z,44.48
2019-02-18T04:01:10.251Z,41.28
2019-02-18T04:03:40.574Z,43.98
2019-02-18T04:06:11.071Z,38.00
2019-02-18T04:08:43.292Z,41.88
2019-02-18T04:11:13.672Z,37.50
2019-02-18T04:13:44.073Z,36.80
2019-02-18T04:16:14.508Z,39.65
2019-02-18T04:18:44.869Z,38.85
2019-02-18T04:21:16.309Z,39.95
2019-02-18T04:23:46.664Z,41.33
2019-02-18T04:26:17.083Z,45.00
2019-02-18T04:28:47.449Z,43.00
2019-02-18T04:31:17.799Z,40.33
2019-02-18T04:33:48.185Z,44.75
2019-02-18T04:36:18.564Z,48.50
2019-02-18T04:38:53.982Z,41.83
2019-02-18T04:41:21.054Z,41.02
2019-02-18T04:43:51.409Z,38.45
2019-02-18T04:46:21.811Z,42.93
2019-02-18T04:48:52.454Z,42.62
2019-02-18T04:51:22.805Z,42.25
2019-02-18T04:53:53.177Z,42.67
2019-02-18T04:56:23.599Z,44.90
2019-02-18T04:58:54.203Z,46.80
2019-02-18T05:01:24.539Z,43.30
2019-02-18T05:03:55.099Z,47.17
2019-02-18T05:06:25.663Z,42.55
2019-02-18T05:09:05.001Z,40.78
2019-02-18T05:11:28.018Z,38.20
2019-02-18T05:13:58.473Z,45.88
2019-02-18T05:16:28.856Z,42.43
2019-02-18T05:18:59.231Z,43.68
2019-02-18T05:21:29.547Z,44.95
2019-02-18T05:23:59.964Z,48.28
2019-02-18T05:26:31.266Z,41.80
2019-02-18T05:29:01.648Z,43.68
2019-02-18T05:31:31.973Z,46.37
2019-02-18T05:34:02.447Z,43.98
2019-02-18T05:36:32.769Z,43.02
2019-02-18T05:39:16.754Z,50.30
2019-02-18T05:41:36.864Z,43.48
2019-02-18T05:44:07.349Z,47.85
2019-02-18T05:46:37.647Z,48.80
2019-02-18T05:49:08.084Z,48.95
2019-02-18T05:51:38.457Z,43.87
2019-02-18T05:54:08.855Z,44.08
2019-02-18T05:56:39.271Z,42.30
2019-02-18T05:59:09.741Z,48.70
2019-02-18T06:01:40.069Z,47.98
2019-02-18T06:04:10.487Z,50.23
2019-02-18T06:06:40.913Z,46.63
2019-02-18T06:09:11.310Z,43.40
2019-02-18T06:11:41.658Z,44.95
2019-02-18T06:14:12.048Z,45.45
2019-02-18T06:16:42.399Z,42.45
2019-02-18T06:19:12.764Z,41.45
2019-02-18T06:21:43.122Z,49.13
2019-02-18T06:24:13.492Z,42.93
2019-02-18T06:26:43.850Z,43.70
2019-02-18T06:29:14.301Z,45.43
2019-02-18T06:31:44.640Z,50.52
2019-02-18T06:34:15.058Z,46.40
2019-02-18T06:36:45.390Z,42.73
2019-02-18T06:39:15.797Z,41.90
2019-02-18T06:41:46.167Z,46.58
2019-02-18T06:44:18.126Z,46.75
2019-02-18T06:46:59.398Z,57.45
2019-02-18T06:49:30.490Z,46.50
2019-02-18T06:52:01.057Z,46.40
2019-02-18T06:54:31.543Z,56.30
2019-02-18T06:57:19.894Z,53.20
2019-02-18T06:59:55.845Z,59.05
2019-02-18T07:02:44.028Z,60.23
2019-02-18T07:05:22.913Z,54.00
2019-02-18T07:08:11.061Z,45.90
2019-02-18T07:10:56.120Z,50.90
2019-02-18T07:13:26.441Z,50.00
2019-02-18T07:15:56.851Z,53.42
2019-02-18T07:18:27.691Z,50.83
2019-02-18T07:20:58.183Z,49.33
2019-02-18T07:23:28.523Z,49.08
2019-02-18T07:25:58.944Z,52.05
2019-02-18T07:28:29.328Z,54.65
2019-02-18T07:30:59.777Z,47.43
2019-02-18T07:33:30.195Z,48.65
2019-02-18T07:36:00.634Z,51.15
2019-02-18T07:38:30.970Z,44.48
2019-02-18T07:41:02.562Z,51.85
2019-02-18T07:43:32.935Z,47.58
2019-02-18T07:46:03.335Z,46.08
2019-02-18T07:48:33.801Z,44.63
2019-02-18T07:51:04.219Z,47.80
2019-02-18T07:53:34.553Z,55.30
2019-02-18T07:56:05.049Z,53.10
2019-02-18T07:58:35.392Z,47.80
2019-02-18T08:01:05.859Z,53.58
2019-02-18T08:03:36.225Z,52.58
2019-02-18T08:06:06.730Z,52.67
2019-02-18T08:08:37.169Z,52.75
2019-02-18T08:11:07.640Z,52.80
2019-02-18T08:13:38.054Z,52.60
2019-02-18T08:16:08.525Z,50.95
2019-02-18T08:18:39.185Z,54.83
2019-02-18T08:21:09.677Z,60.78
2019-02-18T08:23:40.248Z,66.70
2019-02-18T08:26:10.679Z,59.55
2019-02-18T08:28:41.060Z,59.40
2019-02-18T08:31:11.559Z,64.47
2019-02-18T08:33:42.029Z,54.55
2019-02-18T08:36:14.099Z,59.95
2019-02-18T08:38:44.656Z,55.83
2019-02-18T08:41:15.318Z,61.80
2019-02-18T08:43:45.882Z,63.17
2019-02-18T08:46:16.428Z,61.55
2019-02-18T08:48:46.858Z,60.98
2019-02-18T08:51:17.269Z,68.33
2019-02-18T08:53:48.038Z,60.38
2019-02-18T08:56:18.392Z,56.73
2019-02-18T08:58:49.090Z,60.78
2019-02-18T09:01:19.655Z,59.77
2019-02-18T09:03:50.040Z,64.12
2019-02-18T09:06:20.547Z,68.42
2019-02-18T09:08:50.996Z,64.32
2019-02-18T09:11:21.530Z,60.65
2019-02-18T09:13:52.233Z,62.75
2019-02-18T09:16:22.789Z,57.58
2019-02-18T09:18:53.382Z,60.48
2019-02-18T09:21:24.406Z,59.77
2019-02-18T09:24:06.332Z,59.85
2019-02-18T09:26:36.803Z,64.67
2019-02-18T09:29:07.303Z,60.95
2019-02-18T09:31:37.786Z,57.50
2019-02-18T09:34:08.210Z,57.45
2019-02-18T09:36:38.643Z,59.15
2019-02-18T09:39:30.068Z,62.98
2019-02-18T09:41:51.318Z,55.48
2019-02-18T09:44:22.882Z,59.55
2019-02-18T09:46:53.296Z,53.58
2019-02-18T09:49:23.662Z,55.00
2019-02-18T09:51:54.166Z,60.45
2019-02-18T09:54:24.529Z,59.33
2019-02-18T09:56:54.968Z,54.50
2019-02-18T09:59:25.342Z,57.65
2019-02-18T10:01:55.731Z,57.03
2019-02-18T10:04:26.127Z,56.58
2019-02-18T10:06:56.580Z,50.88
2019-02-18T10:09:26.933Z,51.20
2019-02-18T10:11:57.464Z,55.78
2019-02-18T10:14:27.792Z,54.08
2019-02-18T10:16:59.214Z,55.90
2019-02-18T10:19:29.632Z,56.83
2019-02-18T10:22:00.114Z,49.30
2019-02-18T10:24:30.476Z,54.27
2019-02-18T10:27:00.874Z,55.95
2019-02-18T10:29:31.200Z,57.45
2019-02-18T10:32:01.571Z,48.98
2019-02-18T10:34:32.010Z,58.68
2019-02-18T10:37:02.408Z,55.92
2019-02-18T10:39:32.727Z,56.70
2019-02-18T10:42:03.154Z,52.65
2019-02-18T10:44:33.513Z,50.73
2019-02-18T10:47:03.898Z,46.98
2019-02-18T10:49:34.521Z,47.95
2019-02-18T10:52:05.987Z,51.58
2019-02-18T10:54:36.310Z,44.70
2019-02-18T10:57:06.710Z,43.98
2019-02-18T10:59:37.039Z,52.40
2019-02-18T11:02:07.736Z,50.35
2019-02-18T11:04:38.070Z,48.63
2019-02-18T11:07:08.550Z,51.65
2019-02-18T11:09:38.878Z,43.48
2019-02-18T11:12:09.242Z,48.13
2019-02-18T11:14:39.608Z,46.95
2019-02-18T11:17:10.008Z,48.63
2019-02-18T11:19:40.357Z,43.58
2019-02-18T11:22:10.724Z,46.08
2019-02-18T11:24:41.260Z,39.78
2019-02-18T11:27:11.882Z,48.13
2019-02-18T11:29:42.197Z,42.78
2019-02-18T11:32:12.650Z,43.60
2019-02-18T11:34:42.966Z,43.60
2019-02-18T11:37:13.919Z,37.23
2019-02-18T11:39:44.266Z,40.33
2019-02-18T11:42:14.764Z,39.50
2019-02-18T11:44:45.076Z,42.48
2019-02-18T11:47:16.538Z,32.48
2019-02-18T11:49:47.089Z,28.38
2019-02-18T11:52:17.525Z,24.98
2019-02-18T11:54:47.841Z,27.50
2019-02-18T11:57:18.217Z,26.60
2019-02-18T11:59:48.567Z,23.10
2019-02-18T12:02:19.363Z,28.42
2019-02-18T12:04:49.685Z,25.75
2019-02-18T12:07:20.064Z,21.10
2019-02-18T12:09:50.411Z,20.60
2019-02-18T12:12:20.816Z,25.97
2019-02-18T12:14:51.125Z,21.25
2019-02-18T12:17:21.902Z,20.90
2019-02-18T12:19:52.227Z,19.85
2019-02-18T12:22:22.580Z,20.15
2019-02-18T12:24:52.907Z,19.42
2019-02-18T12:27:23.346Z,14.80
2019-02-18T12:29:53.680Z,16.48
2019-02-18T12:32:24.050Z,21.10
2019-02-18T12:34:54.357Z,27.22
2019-02-18T12:37:24.787Z,22.30
2019-02-18T12:39:55.132Z,23.47
2019-02-18T12:42:25.498Z,18.25
2019-02-18T12:44:56.453Z,22.10
2019-02-18T12:47:26.828Z,22.00
2019-02-18T12:49:57.160Z,27.60
2019-02-18T12:52:27.526Z,22.67
2019-02-18T12:55:00.165Z,23.52
2019-02-18T12:57:29.848Z,23.07
2019-02-18T13:00:00.542Z,25.57
2019-02-18T13:02:31.118Z,23.50
2019-02-18T13:05:01.449Z,21.00
2019-02-18T13:07:31.832Z,20.68
2019-02-18T13:10:02.185Z,21.07
2019-02-18T13:12:32.576Z,21.00
2019-02-18T13:15:03.800Z,20.10
2019-02-18T13:17:34.407Z,23.47
2019-02-18T13:20:05.737Z,20.50
2019-02-18T13:22:36.183Z,17.40
2019-02-18T13:25:06.661Z,20.00
2019-02-18T13:27:37.080Z,19.50
2019-02-18T13:30:10.886Z,20.52
2019-02-18T13:32:41.268Z,17.52
2019-02-18T13:35:12.768Z,22.77
2019-02-18T13:37:43.161Z,20.23
2019-02-18T13:40:16.046Z,19.10
2019-02-18T13:42:46.744Z,19.60
2019-02-18T13:45:17.100Z,17.80
2019-02-18T13:47:47.482Z,20.52
2019-02-18T13:50:17.799Z,27.13
2019-02-18T13:52:48.202Z,22.87
2019-02-18T13:55:18.536Z,28.55
2019-02-18T13:57:48.912Z,32.08
2019-02-18T14:00:20.465Z,31.87
2019-02-18T14:02:51.274Z,30.40
2019-02-18T14:05:21.944Z,31.33
2019-02-18T14:07:52.684Z,33.33
2019-02-18T14:10:23.330Z,33.10
2019-02-18T14:12:53.725Z,28.65
2019-02-18T14:15:24.096Z,28.10
2019-02-18T14:17:54.517Z,27.58
2019-02-18T14:20:24.873Z,29.60
2019-02-18T14:22:55.704Z,27.30
2019-02-18T14:25:26.046Z,28.15
2019-02-18T14:27:56.457Z,28.15
2019-02-18T14:30:26.817Z,29.35
2019-02-18T14:32:57.226Z,27.45
2019-02-18T14:35:27.532Z,25.80
2019-02-18T14:37:57.912Z,25.60
2019-02-18T14:40:28.262Z,28.42
2019-02-18T14:42:58.616Z,27.42
2019-02-18T14:45:28.975Z,29.05
2019-02-18T14:47:59.378Z,25.40
2019-02-18T14:50:30.074Z,26.40
2019-02-18T14:53:00.542Z,26.12
2019-02-18T14:55:30.924Z,24.72
2019-02-18T14:58:01.578Z,30.80
2019-02-18T15:00:31.921Z,26.52
2019-02-18T15:03:02.321Z,27.02
2019-02-18T15:05:32.812Z,27.52
2019-02-18T15:08:03.192Z,24.57
2019-02-18T15:10:33.529Z,30.55
2019-02-18T15:13:03.890Z,28.23
2019-02-18T15:15:34.216Z,25.23
2019-02-18T15:18:05.084Z,27.82
2019-02-18T15:20:35.449Z,26.95
2019-02-18T15:23:05.811Z,26.20
2019-02-18T15:26:18.787Z,30.62
2019-02-18T15:28:49.586Z,28.12
2019-02-18T15:31:19.929Z,30.45
2019-02-18T15:33:50.365Z,30.48
2019-02-18T15:36:20.773Z,27.02
2019-02-18T15:38:51.171Z,32.05
2019-02-18T15:41:21.552Z,30.52
2019-02-18T15:43:51.918Z,27.77
2019-02-18T15:46:22.312Z,31.35
2019-02-18T15:48:52.771Z,27.02
2019-02-18T15:51:23.430Z,30.17
2019-02-18T15:53:53.973Z,30.35
2019-02-18T15:56:24.414Z,25.90
2019-02-18T15:58:54.822Z,27.10
2019-02-18T16:01:25.238Z,31.93
2019-02-18T16:03:55.944Z,31.35
2019-02-18T16:06:26.330Z,26.15
2019-02-18T16:08:56.814Z,28.10
2019-02-18T16:11:27.185Z,26.48
2019-02-18T16:13:57.616Z,27.10
2019-02-18T16:16:28.008Z,26.90
2019-02-18T16:18:58.768Z,26.93
2019-02-18T16:21:29.141Z,30.90
2019-02-18T16:23:59.589Z,28.83
2019-02-18T16:26:30.767Z,29.98
2019-02-18T16:29:01.274Z,25.10
2019-02-18T16:31:32.036Z,30.32
2019-02-18T16:34:02.798Z,26.90
2019-02-18T16:36:33.138Z,32.40
2019-02-18T16:39:05.631Z,30.85
2019-02-18T16:41:36.458Z,28.90
2019-02-18T16:44:06.829Z,29.15
2019-02-18T16:46:37.172Z,33.00
2019-02-18T16:49:07.978Z,28.77
2019-02-18T16:51:38.297Z,34.45
2019-02-18T16:54:08.679Z,29.10
2019-02-18T16:56:39.024Z,30.17
2019-02-18T16:59:09.415Z,25.25
2019-02-18T17:01:39.743Z,29.52
2019-02-18T17:04:10.159Z,32.67
2019-02-18T17:06:40.559Z,26.93
2019-02-18T17:09:14.610Z,32.23
2019-02-18T17:11:44.942Z,27.20
2019-02-18T17:14:15.362Z,32.80
2019-02-18T17:16:45.726Z,27.45
2019-02-18T17:19:16.101Z,31.77
2019-02-18T17:21:46.526Z,29.85
2019-02-18T17:24:16.890Z,30.17
2019-02-18T17:26:47.255Z,30.57
2019-02-18T17:29:17.635Z,25.62
2019-02-18T17:31:47.946Z,27.50
2019-02-18T17:34:18.307Z,28.20
2019-02-18T17:36:48.672Z,33.00
2019-02-18T17:39:19.359Z,32.93
2019-02-18T17:41:49.725Z,30.45
2019-02-18T17:44:20.527Z,29.32
2019-02-18T17:46:51.043Z,29.07
2019-02-18T17:49:21.428Z,29.72
2019-02-18T17:51:51.857Z,30.35
2019-02-18T17:54:22.257Z,31.30
2019-02-18T17:56:52.604Z,31.45
2019-02-18T17:59:22.968Z,29.60
2019-02-18T18:01:53.333Z,27.85
2019-02-18T18:04:23.710Z,30.92
2019-02-18T18:06:54.900Z,28.40
2019-02-18T18:09:25.341Z,29.32
2019-02-18T18:11:55.687Z,27.93
2019-02-18T18:14:26.106Z,35.35
2019-02-18T18:16:56.510Z,28.55
2019-02-18T18:19:26.883Z,32.45
2019-02-18T18:21:57.256Z,27.75
2019-02-18T18:24:27.727Z,34.23
2019-02-18T18:26:58.141Z,34.03
2019-02-18T18:29:28.557Z,34.03
2019-02-18T18:31:59.170Z,28.52
2019-02-18T18:34:29.837Z,27.75
2019-02-18T18:37:00.215Z,29.12
2019-02-18T18:39:30.613Z,32.17
2019-02-18T18:42:01.027Z,33.15
2019-02-18T18:44:31.782Z,27.05
2019-02-18T18:47:02.423Z,28.62
2019-02-18T18:49:32.851Z,31.33
2019-02-18T18:52:03.253Z,28.60
2019-02-18T18:54:33.739Z,31.27
2019-02-18T18:57:04.074Z,31.12
2019-02-18T18:59:34.453Z,29.02
2019-02-18T19:02:04.962Z,29.82
2019-02-18T19:04:35.360Z,30.68
2019-02-18T19:07:05.763Z,33.42
2019-02-18T19:09:36.230Z,34.85
2019-02-18T19:12:06.605Z,30.08
2019-02-18T19:14:37.061Z,31.05
2019-02-18T19:17:07.575Z,29.02
2019-02-18T19:19:38.143Z,27.87
2019-02-18T19:22:08.555Z,31.37
2019-02-18T19:24:39.043Z,29.10
2019-02-18T19:27:09.717Z,28.07
2019-02-18T19:29:40.129Z,30.05
2019-02-18T19:32:10.755Z,25.17
2019-02-18T19:34:41.124Z,25.12
2019-02-18T19:37:11.482Z,26.33
2019-02-18T19:39:42.287Z,26.82
2019-02-18T19:42:12.630Z,27.20
2019-02-18T19:44:43.032Z,26.42
2019-02-18T19:47:13.407Z,24.07
2019-02-18T19:49:43.923Z,24.30
2019-02-18T19:52:14.571Z,23.07
2019-02-18T19:54:44.955Z,24.55
2019-02-18T19:57:16.269Z,24.77
2019-02-18T19:59:46.741Z,24.55
2019-02-18T20:02:17.177Z,24.30
2019-02-18T20:04:47.558Z,27.05
2019-02-18T20:07:17.966Z,25.85
2019-02-18T20:09:48.436Z,26.33
2019-02-18T20:12:18.767Z,26.05
2019-02-18T20:14:49.180Z,29.92
2019-02-18T20:17:19.535Z,28.92
2019-02-18T20:19:50.345Z,30.17
2019-02-18T20:22:20.757Z,28.10
2019-02-18T20:24:51.312Z,27.15
2019-02-18T20:27:22.203Z,31.05
2019-02-18T20:29:52.640Z,25.72
2019-02-18T20:32:23.402Z,28.90
2019-02-18T20:34:53.824Z,25.10
2019-02-18T20:37:24.205Z,30.85
2019-02-18T20:39:54.615Z,29.87
2019-02-18T20:42:25.108Z,33.53
2019-02-18T20:44:55.634Z,29.65
2019-02-18T20:47:26.230Z,27.52
2019-02-18T20:49:56.649Z,28.12
2019-02-18T20:52:27.139Z,26.52
2019-02-18T20:54:57.603Z,26.82
2019-02-18T20:57:27.968Z,26.77
2019-02-18T20:59:58.459Z,30.08
2019-02-18T21:02:29.929Z,22.62
2019-02-18T21:05:00.568Z,33.28
2019-02-18T21:07:31.484Z,35.03
2019-02-18T21:10:01.955Z,29.32
2019-02-18T21:12:33.026Z,27.90
2019-02-18T21:15:03.437Z,27.70
2019-02-18T21:17:34.814Z,29.57
2019-02-18T21:20:06.221Z,25.12
2019-02-18T21:22:36.599Z,27.42
2019-02-18T21:25:07.450Z,29.05
2019-02-18T21:27:37.821Z,34.38
2019-02-18T21:30:09.442Z,30.23
2019-02-18T21:32:40.071Z,29.75
2019-02-18T21:35:10.545Z,32.93
2019-02-18T21:37:40.994Z,32.23
2019-02-18T21:40:11.515Z,33.40
2019-02-18T21:42:41.955Z,30.45
2019-02-18T21:45:12.579Z,27.67
2019-02-18T21:47:43.178Z,26.25
2019-02-18T21:50:13.771Z,30.10
2019-02-18T21:52:44.110Z,28.75
2019-02-18T21:55:14.668Z,30.70
2019-02-18T21:57:45.067Z,30.85
2019-02-18T22:00:21.381Z,27.80
2019-02-18T22:02:51.883Z,29.50
2019-02-18T22:05:22.290Z,31.57
2019-02-18T22:07:52.745Z,28.65
2019-02-18T22:10:23.294Z,30.35
2019-02-18T22:12:53.680Z,27.48
2019-02-18T22:15:24.341Z,33.53
2019-02-18T22:17:54.775Z,33.48
2019-02-18T22:20:25.500Z,28.42
2019-02-18T22:22:55.915Z,36.03
2019-02-18T22:25:26.335Z,29.02
2019-02-18T22:27:56.670Z,29.82
2019-02-18T22:30:27.342Z,29.87
2019-02-18T22:32:58.048Z,30.95
2019-02-18T22:35:28.530Z,34.40
2019-02-18T22:37:58.921Z,30.82
2019-02-18T22:40:29.402Z,32.73
2019-02-18T22:42:59.801Z,27.40
2019-02-18T22:45:30.204Z,32.65
2019-02-18T22:48:00.778Z,33.33
2019-02-18T22:50:31.225Z,33.80
2019-02-18T22:53:01.617Z,33.92
2019-02-18T22:55:32.060Z,31.00
2019-02-18T22:58:02.546Z,33.92
2019-02-18T23:00:58.451Z,35.40
2019-02-18T23:03:28.885Z,30.48
2019-02-18T23:06:00.337Z,35.40
2019-02-18T23:08:30.692Z,38.70
2019-02-18T23:11:01.676Z,39.60
2019-02-18T23:13:32.092Z,26.50
2019-02-18T23:16:02.726Z,34.50
2019-02-18T23:18:33.159Z,30.32
2019-02-18T23:21:03.513Z,31.75
2019-02-18T23:23:33.934Z,33.50
2019-02-18T23:26:04.600Z,36.13
2019-02-18T23:28:35.060Z,36.68
2019-02-18T23:31:05.513Z,29.25
2019-02-18T23:33:35.943Z,31.37
2019-02-18T23:36:06.561Z,32.75
2019-02-18T23:38:36.907Z,30.08
2019-02-18T23:41:07.399Z,34.40
2019-02-18T23:43:37.827Z,33.50
2019-02-18T23:46:08.351Z,32.28
2019-02-18T23:48:38.713Z,30.45
2019-02-18T23:51:10.427Z,31.75
2019-02-18T23:53:40.816Z,38.63
2019-02-18T23:56:11.303Z,28.98
2019-02-18T23:58:41.736Z,30.40
